Welcome to Des Moines Iowa Weather. I am an independent private personal weather station on the Northwest Side of Des Moines, Iowa. Just East of Windsor Heights and just West of Glendale . This site is also mobile friendly.

There are no active watches, warnings or advisories


Visit our other weather sites:

Historical Data

Weather Station Setup



Weather Underground History page Text

Daily Summary for February 18, 2018 Units:  Metric    English   Both
« Previous Day
Next Day »
Daily Weekly Monthly Yearly Custom
  High: Low: Average:
Temperature: 11.4 °C -4.6 °C 4.1 °C
Dew Point: 1.1 °C -5.6 °C -2.1 °C
Humidity: 93 % 37 % 68 %
Wind Speed: 22.5 km/h 0 km/h 3.7 km/h
Wind Gust: 25.7 km/h - -
Wind:- - South
Pressure: 1021.2 hPa 1003.6 hPa -
Precipitation: 0 mm    
Historical Graphs
 
 
Tabular Data for February 18, 2018
Time Temperature Dew Point Pressure Wind Wind Speed Wind Gust Humidity Rainfall Rate (Hourly)
00:11 -4 °C -5.6 °C 1021.2 hPa Calm     90 % 0 mm
00:26 -4.1 °C -5.6 °C 1021.2 hPa Calm     90 % 0 mm
00:41 -4.2 °C -5.6 °C 1021.2 hPa Calm     90 % 0 mm
00:56 -4.2 °C -5.6 °C 1020.9 hPa Calm     91 % 0 mm
01:11 -4.3 °C -5.6 °C 1021.2 hPa Calm     91 % 0 mm
01:26 -4.4 °C -5.6 °C 1020.9 hPa Calm     91 % 0 mm
01:41 -4.6 °C -5.6 °C 1020.9 hPa Calm     91 % 0 mm
01:56 -4.6 °C -5.6 °C 1020.5 hPa Calm     91 % 0 mm
02:11 -4.5 °C -5.6 °C 1020.2 hPa Calm     92 % 0 mm
02:26 -4.4 °C -5.6 °C 1020.2 hPa Calm     92 % 0 mm
02:44 -4.3 °C -5.6 °C 1020.2 hPa Calm   3.2 km/h 92 % 0 mm
02:56 -4.3 °C -5.6 °C 1019.9 hPa Calm   4.8 km/h 92 % 0 mm
03:20 -4.2 °C -5 °C 1019.9 hPa Calm     92 % 0 mm
03:26 -4.1 °C -5 °C 1019.5 hPa Calm   3.2 km/h 93 % 0 mm
03:42 -4 °C -5 °C 1019.5 hPa Calm   3.2 km/h 93 % 0 mm
03:56 -3.8 °C -5 °C 1019.5 hPa Calm   4.8 km/h 93 % 0 mm
04:11 -3.5 °C -4.4 °C 1019.5 hPa Calm   4.8 km/h 93 % 0 mm
04:26 -3.3 °C -4.4 °C 1019.5 hPa Calm   4.8 km/h 93 % 0 mm
04:41 -3.3 °C -4.4 °C 1019.5 hPa Calm   4.8 km/h 93 % 0 mm
04:56 -3.1 °C -3.9 °C 1019.2 hPa SSE 3.2 km/h 9.7 km/h 93 % 0 mm
05:11 -2.8 °C -3.9 °C 1019.2 hPa South 14.5 km/h 14.5 km/h 92 % 0 mm
05:26 -2.5 °C -3.9 °C 1018.8 hPa SSE 3.2 km/h 11.3 km/h 91 % 0 mm
05:42 -2.4 °C -3.9 °C 1018.8 hPa SSE 1.6 km/h 11.3 km/h 90 % 0 mm
05:57 -2.3 °C -3.9 °C 1018.8 hPa SSE 6.4 km/h 8 km/h 89 % 0 mm
06:12 -2.2 °C -3.9 °C 1018.2 hPa SSE 1.6 km/h 9.7 km/h 88 % 0 mm
06:27 -2.1 °C -3.9 °C 1017.5 hPa SSE 3.2 km/h 11.3 km/h 87 % 0 mm
06:42 -2.1 °C -3.9 °C 1017.2 hPa SSE 3.2 km/h 9.7 km/h 87 % 0 mm
06:57 -2.2 °C -3.9 °C 1016.8 hPa SSE 1.6 km/h 8 km/h 86 % 0 mm
07:12 -1.9 °C -3.9 °C 1016.8 hPa SSE 6.4 km/h 12.9 km/h 86 % 0 mm
07:27 -1.6 °C -3.9 °C 1016.5 hPa SSE 4.8 km/h 11.3 km/h 85 % 0 mm
07:42 -1.5 °C -3.9 °C 1016.5 hPa Calm   11.3 km/h 84 % 0 mm
07:57 -1.2 °C -3.9 °C 1016.1 hPa SE 1.6 km/h 9.7 km/h 83 % 0 mm
08:12 -0.7 °C -3.3 °C 1015.8 hPa SSE 6.4 km/h 12.9 km/h 82 % 0 mm
08:27 0 °C -2.8 °C 1015.5 hPa South 3.2 km/h 11.3 km/h 81 % 0 mm
08:42 1.3 °C -2.2 °C 1015.5 hPa SSE 3.2 km/h 11.3 km/h 78 % 0 mm
08:57 2.2 °C -1.7 °C 1015.1 hPa SW 3.2 km/h 12.9 km/h 77 % 0 mm
09:12 2.8 °C -0.6 °C 1014.8 hPa Calm   11.3 km/h 77 % 0 mm
09:27 3.6 °C -0.6 °C 1014.1 hPa South 9.7 km/h 14.5 km/h 76 % 0 mm
09:42 4.2 °C 0 °C 1013.4 hPa South 6.4 km/h 14.5 km/h 75 % 0 mm
09:58 5.1 °C 0.6 °C 1013.4 hPa South 9.7 km/h 12.9 km/h 73 % 0 mm
10:13 5.8 °C 1.1 °C 1013.4 hPa South 4.8 km/h 19.3 km/h 71 % 0 mm
10:28 6.9 °C 0.6 °C 1013.1 hPa WSW 4.8 km/h 24.1 km/h 64 % 0 mm
10:43 7.6 °C 0 °C 1013.1 hPa South 17.7 km/h 19.3 km/h 59 % 0 mm
10:58 8.1 °C -0.6 °C 1013.1 hPa SSE 6.4 km/h 19.3 km/h 56 % 0 mm
11:13 8.4 °C -0.6 °C 1012.4 hPa SSE 3.2 km/h 24.1 km/h 53 % 0 mm
11:28 8.6 °C -1.1 °C 1012.1 hPa SSE 8 km/h 22.5 km/h 50 % 0 mm
11:43 8.8 °C -1.7 °C 1011.7 hPa South 11.3 km/h 20.9 km/h 49 % 0 mm
11:58 8.9 °C -1.7 °C 1011.4 hPa South 11.3 km/h 19.3 km/h 48 % 0 mm
12:13 9.3 °C -1.7 °C 1010.7 hPa South 1.6 km/h 17.7 km/h 47 % 0 mm
12:28 9.4 °C -1.7 °C 1010 hPa ESE 6.4 km/h 16.1 km/h 46 % 0 mm
12:43 9.7 °C -1.7 °C 1009.4 hPa South 9.7 km/h 17.7 km/h 46 % 0 mm
12:58 10.2 °C -2.2 °C 1009 hPa South 4.8 km/h 16.1 km/h 43 % 0 mm
13:13 10.9 °C -2.2 °C 1008.4 hPa South 8 km/h 22.5 km/h 40 % 0 mm
13:28 11.3 °C -2.8 °C 1007.7 hPa SSW 19.3 km/h 19.3 km/h 37 % 0 mm
13:43 11.3 °C -2.8 °C 1007 hPa SSW 12.9 km/h 25.7 km/h 37 % 0 mm
13:58 11.4 °C -2.2 °C 1006.7 hPa South 11.3 km/h 16.1 km/h 39 % 0 mm
14:13 11.4 °C -2.2 °C 1006.3 hPa SSE 4.8 km/h 22.5 km/h 39 % 0 mm
14:29 11.3 °C -2.2 °C 1005.6 hPa SW 6.4 km/h 22.5 km/h 39 % 0 mm
14:44 10.9 °C -2.2 °C 1005.3 hPa South 11.3 km/h 22.5 km/h 40 % 0 mm
14:59 10.9 °C -1.7 °C 1005 hPa SSW 8 km/h 20.9 km/h 42 % 0 mm
15:16 10.5 °C -1.7 °C 1005.3 hPa SSW 22.5 km/h 22.5 km/h 43 % 0 mm
15:29 10.4 °C -1.7 °C 1004.6 hPa WNW 14.5 km/h 25.7 km/h 44 % 0 mm
15:44 10.4 °C -1.1 °C 1003.9 hPa SSE 9.7 km/h 22.5 km/h 46 % 0 mm
15:59 10.4 °C -0.6 °C 1003.6 hPa South 6.4 km/h 14.5 km/h 46 % 0 mm
16:14 10.7 °C -1.1 °C 1003.6 hPa Calm   17.7 km/h 45 % 0 mm
16:29 10.7 °C -1.1 °C 1004.3 hPa South 3.2 km/h 11.3 km/h 45 % 0 mm
16:44 10.7 °C -1.7 °C 1004.6 hPa SSW 3.2 km/h 16.1 km/h 43 % 0 mm
16:59 10.6 °C -1.1 °C 1004.6 hPa SSW 3.2 km/h 9.7 km/h 44 % 0 mm
17:14 10.4 °C -1.1 °C 1005.3 hPa WSW 11.3 km/h 11.3 km/h 45 % 0 mm
17:29 10.1 °C -1.7 °C 1005.3 hPa SSW 1.6 km/h 9.7 km/h 45 % 0 mm
17:44 9.8 °C -1.7 °C 1005.3 hPa Calm   8 km/h 46 % 0 mm
17:59 9.5 °C -1.1 °C 1005.3 hPa Calm   3.2 km/h 48 % 0 mm
18:14 9 °C -1.1 °C 1005.6 hPa Calm   1.6 km/h 50 % 0 mm
18:29 8.4 °C -1.1 °C 1005.6 hPa Calm     52 % 0 mm
18:44 7.8 °C -1.1 °C 1005.6 hPa Calm     54 % 0 mm
18:59 7.3 °C -1.1 °C 1005.6 hPa Calm   1.6 km/h 56 % 0 mm
19:14 6.9 °C -1.1 °C 1005.6 hPa Calm     57 % 0 mm
19:29 6.6 °C -1.1 °C 1005.6 hPa Calm     58 % 0 mm
19:44 6.2 °C -1.1 °C 1005.6 hPa Calm   3.2 km/h 61 % 0 mm
20:01 6.3 °C -0.6 °C 1005.3 hPa Calm   6.4 km/h 63 % 0 mm
20:15 6.6 °C 0 °C 1005.3 hPa Calm   6.4 km/h 63 % 0 mm
20:30 6.9 °C 0 °C 1005.3 hPa South 4.8 km/h 6.4 km/h 62 % 0 mm
20:46 6.9 °C 0 °C 1005.3 hPa Calm   4.8 km/h 63 % 0 mm
21:00 6.9 °C 0.6 °C 1005.6 hPa Calm   4.8 km/h 64 % 0 mm
21:15 6.8 °C 0.6 °C 1005.6 hPa South 1.6 km/h 6.4 km/h 66 % 0 mm
21:30 6.8 °C 1.1 °C 1005.3 hPa South 3.2 km/h 4.8 km/h 67 % 0 mm
21:45 6.8 °C 1.1 °C 1005.3 hPa Calm   4.8 km/h 68 % 0 mm
22:00 6.9 °C 1.1 °C 1005.3 hPa South 4.8 km/h 8 km/h 68 % 0 mm
22:15 7 °C 1.1 °C 1005.3 hPa Calm   6.4 km/h 67 % 0 mm
22:30 6.9 °C 1.1 °C 1005 hPa Calm   4.8 km/h 67 % 0 mm
22:45 6.8 °C 1.1 °C 1005.3 hPa Calm   4.8 km/h 68 % 0 mm
23:00 6.6 °C 1.1 °C 1005.3 hPa Calm   4.8 km/h 68 % 0 mm
23:15 6.5 °C 1.1 °C 1005.3 hPa Calm     69 % 0 mm
23:30 6.4 °C 1.1 °C 1005.6 hPa Calm   1.6 km/h 70 % 0 mm
23:45 6.3 °C 1.1 °C 1005.3 hPa Calm   4.8 km/h 70 % 0 mm
Des Moines Weather and Climate
Compliments of Weather Underground - 3 mb

Script developed by  Jim McMurry - jmcmurry@mwt.net Adapted for the template by  Wim van der Kuil - Leuven-Template.eu

You find our weather info also at:

Weather Underground

Equipment we use:

Weather-station
Davis VP2 Plus

Weather-program
Davis Weatherlink.Com

Weather-server
iMac (Retina 4K, 21.5-inch, Late 2015)

Provider
Hostmonster.com

Davis VP2 Plus

Davis Weatherlink.Com

iMac (Retina 4K, 21.5-inch, Late 2015)

Hostmonster.com